Time;durP1;ratioP1;P1;durP2;ratioP2;P2;SDS_P1;SDS_P2;PMS_P1;PMS_P2;Temp;Humidity;BMP_temperature;BMP_pressure;BME280_temperature;BME280_humidity;BME280_pressure;Samples;Min_cycle;Max_cycle;Signal;HPM_P1;HPM_P2
2024/03/23 00:02:03;;;;;;;;;;;;;;;3.73;97.56;100739.03;5022520;28;19925;-76
2024/03/23 00:04:29;;;;;;;;;;;;;;;3.84;96.73;100737.22;5023157;28;19972;-76
2024/03/23 00:06:55;;;;;;;;;;;;;;;3.81;96.76;100731.03;5023404;28;20012;-76
2024/03/23 00:09:21;;;;;;;;;;;;;;;3.69;97.56;100743.84;5024903;28;19983;-76
2024/03/23 00:11:47;;;;;;;;;;;;;;;3.63;98.08;100744.31;5022060;28;20296;-76
2024/03/23 00:14:13;;;;;;;;;;;;;;;3.66;98.22;100739.41;5022393;28;19917;-76
2024/03/23 00:16:39;;;;;;;;;;;;;;;3.70;98.21;100738.84;5022164;28;20358;-76
2024/03/23 00:19:06;;;;;;;;;;;;;;;3.77;97.63;100729.94;5024328;28;20003;-76
2024/03/23 00:21:34;;;;;;;;;;;;;;;3.80;97.25;100731.81;5023067;28;19922;-76
2024/03/23 00:24:00;;;;;;;;;;;;;;;3.71;97.37;100734.63;5023018;28;19923;-76
2024/03/23 00:26:26;;;;;;;;;;;;;;;3.63;97.74;100734.09;5023410;28;19925;-76
2024/03/23 00:28:52;;;;;;;;;;;;;;;3.66;98.25;100730.88;5003625;28;20882;-76
2024/03/23 00:31:17;;;;;;;;;;;;;;;3.62;98.36;100728.88;5024717;28;19921;-76
2024/03/23 00:33:43;;;;;;;;;;;;;;;3.60;99.09;100733.91;5028591;28;20378;-76
2024/03/23 00:36:09;;;;;;;;;;;;;;;3.69;98.37;100741.31;5012702;28;19921;-76
2024/03/23 00:38:36;;;;;;;;;;;;;;;3.83;98.34;100732.91;5012494;28;20303;-76
2024/03/23 00:41:02;;;;;;;;;;;;;;;4.04;97.47;100725.81;5012641;28;20342;-76
2024/03/23 00:43:28;;;;;;;;;;;;;;;4.02;95.72;100732.47;5012720;28;19918;-76
2024/03/23 00:45:54;;;;;;;;;;;;;;;4.07;95.74;100722.56;5013114;28;19976;-76
2024/03/23 00:48:20;;;;;;;;;;;;;;;4.22;95.52;100727.81;5012590;28;19922;-76
2024/03/23 00:50:46;;;;;;;;;;;;;;;4.37;94.11;100726.28;5013418;28;19913;-76
2024/03/23 00:53:11;;;;;;;;;;;;;;;4.47;93.14;100721.78;5012354;28;19925;-76
2024/03/23 00:55:37;;;;;;;;;;;;;;;4.38;92.86;100719.50;5012380;28;20399;-76
2024/03/23 00:58:02;;;;;;;;;;;;;;;4.18;93.65;100718.19;5012199;28;19933;-76
2024/03/23 01:00:27;;;;;;;;;;;;;;;4.07;94.55;100721.69;5010838;28;20314;-76
2024/03/23 01:02:53;;;;;;;;;;;;;;;3.95;95.64;100719.19;5012512;28;19976;-76
2024/03/23 01:05:18;;;;;;;;;;;;;;;3.88;96.35;100710.25;5012855;28;19924;-75
2024/03/23 01:07:43;;;;;;;;;;;;;;;3.89;96.77;100715.44;5012214;28;20283;-76
2024/03/23 01:10:09;;;;;;;;;;;;;;;3.87;96.23;100713.56;5012055;28;20299;-76
2024/03/23 01:12:34;;;;;;;;;;;;;;;3.95;96.42;100714.97;5012007;28;20352;-76
2024/03/23 01:14:59;;;;;;;;;;;;;;;3.95;95.70;100709.88;5012083;28;19929;-76
2024/03/23 01:17:25;;;;;;;;;;;;;;;3.96;95.76;100710.75;5012078;28;20011;-76
2024/03/23 01:19:50;;;;;;;;;;;;;;;4.09;95.66;100713.34;5011824;28;20349;-76
2024/03/23 01:22:15;;;;;;;;;;;;;;;4.28;94.77;100709.47;5011957;28;20434;-76
2024/03/23 01:24:41;;;;;;;;;;;;;;;4.43;93.33;100709.59;5003266;28;20484;-76
2024/03/23 01:27:06;;;;;;;;;;;;;;;4.55;93.25;100705.28;5012044;28;19928;-76
2024/03/23 01:29:31;;;;;;;;;;;;;;;4.63;91.55;100709.19;5011482;28;19936;-77
2024/03/23 01:31:57;;;;;;;;;;;;;;;4.59;91.56;100707.22;5011936;28;19933;-77
2024/03/23 01:34:22;;;;;;;;;;;;;;;4.43;93.87;100710.47;5012028;28;20402;-76
2024/03/23 01:36:48;;;;;;;;;;;;;;;4.49;95.25;100703.19;5011813;28;20269;-76
2024/03/23 01:39:14;;;;;;;;;;;;;;;4.58;95.23;100702.03;5010201;28;19929;-77
2024/03/23 01:41:42;;;;;;;;;;;;;;;4.61;96.04;100699.66;5011740;28;19936;-75
2024/03/23 01:44:07;;;;;;;;;;;;;;;4.69;95.34;100696.81;5011545;28;19928;-76
2024/03/23 01:46:35;;;;;;;;;;;;;;;4.63;93.87;100700.66;5011313;28;19921;-76
2024/03/23 01:49:01;;;;;;;;;;;;;;;4.60;94.06;100695.31;5011791;28;19931;-76
2024/03/23 01:51:27;;;;;;;;;;;;;;;4.69;94.30;100691.69;5012115;28;19917;-75
2024/03/23 01:53:52;;;;;;;;;;;;;;;4.80;92.52;100688.94;5009950;28;19922;-76
2024/03/23 01:56:18;;;;;;;;;;;;;;;4.69;91.27;100690.81;5011160;28;19928;-76
2024/03/23 01:58:43;;;;;;;;;;;;;;;4.72;90.06;100696.09;5011074;28;19952;-77
2024/03/23 02:01:09;;;;;;;;;;;;;;;4.59;88.28;100691.91;5011132;28;19921;-76
2024/03/23 02:03:34;;;;;;;;;;;;;;;4.24;86.94;100695.59;5011319;28;20372;-76
2024/03/23 02:06:00;;;;;;;;;;;;;;;4.19;86.95;100695.28;5011277;28;20405;-76
2024/03/23 02:08:25;;;;;;;;;;;;;;;4.22;87.07;100697.16;5011177;28;19921;-76
2024/03/23 02:10:51;;;;;;;;;;;;;;;4.26;87.10;100698.25;5011130;28;19918;-76
2024/03/23 02:13:17;;;;;;;;;;;;;;;4.25;86.23;100699.03;5011033;28;20028;-76
2024/03/23 02:15:43;;;;;;;;;;;;;;;4.14;85.95;100694.09;5011179;28;19929;-76
2024/03/23 02:18:08;;;;;;;;;;;;;;;4.17;85.96;100701.06;5011028;28;20453;-76
2024/03/23 02:20:34;;;;;;;;;;;;;;;4.18;86.02;100697.75;5010682;28;19921;-76
2024/03/23 02:23:00;;;;;;;;;;;;;;;4.10;85.89;100702.34;4998093;28;19924;-76
2024/03/23 02:25:25;;;;;;;;;;;;;;;4.00;86.53;100698.28;5011324;28;19918;-76
2024/03/23 02:27:50;;;;;;;;;;;;;;;3.92;87.40;100703.66;5011337;28;19971;-76
2024/03/23 02:30:16;;;;;;;;;;;;;;;3.81;87.81;100703.81;5010660;28;20016;-76
2024/03/23 02:32:41;;;;;;;;;;;;;;;3.78;88.47;100705.28;5010543;28;19928;-76
2024/03/23 02:35:06;;;;;;;;;;;;;;;3.75;88.57;100705.97;5010372;28;19928;-76
2024/03/23 02:37:32;;;;;;;;;;;;;;;3.80;88.85;100706.25;5008208;28;19928;-76
2024/03/23 02:39:58;;;;;;;;;;;;;;;3.79;89.02;100701.94;5010989;28;19968;-75
2024/03/23 02:42:23;;;;;;;;;;;;;;;3.66;89.78;100702.78;5010640;28;20005;-76
2024/03/23 02:44:48;;;;;;;;;;;;;;;3.63;90.49;100698.34;5010684;28;19948;-75
2024/03/23 02:47:15;;;;;;;;;;;;;;;3.70;90.47;100704.75;5010490;28;19917;-76
2024/03/23 02:49:40;;;;;;;;;;;;;;;3.67;89.82;100702.88;5010393;28;19928;-76
2024/03/23 02:52:06;;;;;;;;;;;;;;;3.60;90.64;100710.03;5011067;28;20288;-75
2024/03/23 02:54:31;;;;;;;;;;;;;;;3.47;91.07;100711.72;5011171;28;19969;-76
2024/03/23 02:56:56;;;;;;;;;;;;;;;3.52;91.53;100712.06;5010886;28;20023;-76
2024/03/23 02:59:22;;;;;;;;;;;;;;;3.59;91.81;100709.16;5010355;28;19961;-75
2024/03/23 03:01:47;;;;;;;;;;;;;;;3.62;91.74;100714.44;5010515;28;19928;-76
2024/03/23 03:04:12;;;;;;;;;;;;;;;3.59;91.75;100713.34;5010514;28;19926;-75
2024/03/23 03:06:38;;;;;;;;;;;;;;;3.59;91.36;100704.03;5009766;28;19928;-75
2024/03/23 03:09:03;;;;;;;;;;;;;;;3.51;91.18;100707.72;5010452;28;19918;-76
2024/03/23 03:11:28;;;;;;;;;;;;;;;3.10;93.02;100715.91;5011133;28;19917;-75
2024/03/23 03:13:54;;;;;;;;;;;;;;;2.87;95.72;100718.59;5010067;28;20051;-76
2024/03/23 03:16:19;;;;;;;;;;;;;;;2.83;96.58;100716.63;5010730;28;19921;-75
2024/03/23 03:18:46;;;;;;;;;;;;;;;2.66;97.42;100717.94;5010364;28;19921;-75
2024/03/23 03:21:11;;;;;;;;;;;;;;;2.45;99.32;100712.16;5004505;28;19926;-76
2024/03/23 03:23:37;;;;;;;;;;;;;;;2.29;100.00;100715.22;5003966;28;19922;-75
2024/03/23 03:26:03;;;;;;;;;;;;;;;2.01;100.00;100713.19;5014240;28;19940;-75
2024/03/23 03:28:30;;;;;;;;;;;;;;;1.86;100.00;100709.50;5014191;28;20929;-75
2024/03/23 03:30:56;;;;;;;;;;;;;;;1.77;100.00;100715.66;5014010;28;19917;-75
2024/03/23 03:33:21;;;;;;;;;;;;;;;1.73;100.00;100710.22;5012129;28;19927;-76
2024/03/23 03:35:47;;;;;;;;;;;;;;;1.66;100.00;100713.03;5014403;28;20394;-75
2024/03/23 03:38:12;;;;;;;;;;;;;;;1.53;100.00;100721.41;5013623;28;19929;-76
2024/03/23 03:40:37;;;;;;;;;;;;;;;1.50;100.00;100722.06;5014021;28;19945;-76
2024/03/23 03:43:03;;;;;;;;;;;;;;;1.37;100.00;100721.88;5013776;28;19917;-75
2024/03/23 03:45:28;;;;;;;;;;;;;;;1.01;100.00;100725.84;5014141;28;19918;-76
2024/03/23 03:47:53;;;;;;;;;;;;;;;1.03;100.00;100720.13;5013454;28;20011;-76
2024/03/23 03:50:19;;;;;;;;;;;;;;;1.00;100.00;100726.59;5013288;28;19922;-76
2024/03/23 03:52:44;;;;;;;;;;;;;;;1.01;100.00;100729.28;5013792;28;20052;-76
2024/03/23 03:55:12;;;;;;;;;;;;;;;1.03;100.00;100727.75;5014520;28;19964;-76
2024/03/23 03:57:37;;;;;;;;;;;;;;;1.18;100.00;100732.28;5013623;28;20016;-76
2024/03/23 04:00:04;;;;;;;;;;;;;;;1.24;100.00;100732.75;5013544;28;20064;-76
2024/03/23 04:02:30;;;;;;;;;;;;;;;1.31;100.00;100740.09;5010905;28;19922;-76
2024/03/23 04:04:55;;;;;;;;;;;;;;;1.34;100.00;100730.16;5013469;28;19921;-76
2024/03/23 04:07:22;;;;;;;;;;;;;;;1.53;100.00;100734.13;5013422;28;19925;-76
2024/03/23 04:09:48;;;;;;;;;;;;;;;1.63;100.00;100734.06;5013355;28;19921;-76
2024/03/23 04:12:13;;;;;;;;;;;;;;;1.65;100.00;100737.63;5013340;28;19979;-76
2024/03/23 04:14:38;;;;;;;;;;;;;;;1.64;100.00;100740.06;5013402;28;19968;-76
2024/03/23 04:17:03;;;;;;;;;;;;;;;1.73;100.00;100733.13;5013275;28;20036;-76
2024/03/23 04:19:29;;;;;;;;;;;;;;;1.95;100.00;100735.66;5013409;28;20442;-76
2024/03/23 04:21:54;;;;;;;;;;;;;;;2.18;100.00;100736.47;5013312;28;20295;-76
2024/03/23 04:24:22;;;;;;;;;;;;;;;2.36;100.00;100740.41;5013076;28;20276;-76
2024/03/23 04:26:47;;;;;;;;;;;;;;;2.55;99.22;100740.09;5012884;28;19928;-76
2024/03/23 04:29:13;;;;;;;;;;;;;;;2.67;96.60;100740.09;5013149;28;19990;-77
2024/03/23 04:31:38;;;;;;;;;;;;;;;2.73;95.38;100743.09;5013025;28;19975;-76
2024/03/23 04:34:04;;;;;;;;;;;;;;;2.72;95.09;100738.78;5013182;28;19973;-76
2024/03/23 04:36:29;;;;;;;;;;;;;;;2.66;95.40;100748.53;4995353;28;19967;-76
2024/03/23 04:38:56;;;;;;;;;;;;;;;2.44;97.03;100748.59;5024237;28;19921;-76
2024/03/23 04:41:41;;;;;;;;;;;;;;;2.37;98.52;100738.75;5017900;28;19937;-76
2024/03/23 04:44:06;;;;;;;;;;;;;;;2.43;98.62;100749.41;4980326;28;20004;-76
2024/03/23 04:46:32;;;;;;;;;;;;;;;2.39;97.73;100749.94;4980858;28;20002;-77
2024/03/23 04:48:58;;;;;;;;;;;;;;;2.39;97.49;100753.38;4976145;28;19918;-78
2024/03/23 04:51:24;;;;;;;;;;;;;;;2.50;97.40;100746.50;4961901;28;19919;-77
2024/03/23 04:53:49;;;;;;;;;;;;;;;2.48;96.90;100747.16;4976254;28;19992;-77
2024/03/23 04:56:16;;;;;;;;;;;;;;;2.40;96.46;100746.63;4968368;28;20382;-77
2024/03/23 04:58:43;;;;;;;;;;;;;;;2.22;97.16;100749.56;4980099;28;19921;-77
2024/03/23 05:01:09;;;;;;;;;;;;;;;2.08;98.80;100750.19;4979563;28;19918;-77
2024/03/23 05:03:34;;;;;;;;;;;;;;;2.21;99.37;100752.88;4981456;28;19921;-77
2024/03/23 05:06:00;;;;;;;;;;;;;;;2.28;99.48;100754.25;4979946;28;20384;-77
2024/03/23 05:08:25;;;;;;;;;;;;;;;2.39;99.51;100755.94;4981940;28;20367;-76
2024/03/23 05:10:51;;;;;;;;;;;;;;;2.51;99.61;100763.56;4976980;28;19929;-77
2024/03/23 05:13:16;;;;;;;;;;;;;;;2.55;99.44;100759.59;4980004;28;19918;-76
2024/03/23 05:15:41;;;;;;;;;;;;;;;2.55;99.73;100759.59;5011660;28;20022;-77
2024/03/23 05:18:06;;;;;;;;;;;;;;;2.59;100.00;100759.94;5021606;28;20047;-77
2024/03/23 05:20:32;;;;;;;;;;;;;;;2.65;100.00;100763.72;5018745;28;20410;-76
2024/03/23 05:22:57;;;;;;;;;;;;;;;2.77;100.00;100763.72;5021645;28;19925;-76
2024/03/23 05:25:23;;;;;;;;;;;;;;;2.94;100.00;100765.84;5021755;28;19928;-76
2024/03/23 05:27:48;;;;;;;;;;;;;;;3.03;99.63;100765.63;5023356;28;20016;-76
2024/03/23 05:30:14;;;;;;;;;;;;;;;3.13;98.91;100760.41;5023460;28;19999;-76
2024/03/23 05:32:40;;;;;;;;;;;;;;;3.18;98.63;100763.28;5021844;28;20397;-76
2024/03/23 05:35:07;;;;;;;;;;;;;;;3.12;98.66;100760.28;5022391;28;20304;-76
2024/03/23 05:37:33;;;;;;;;;;;;;;;3.20;98.63;100764.25;5021634;28;20453;-76
2024/03/23 05:40:00;;;;;;;;;;;;;;;3.29;99.31;100764.03;5016344;28;19972;-78
2024/03/23 05:42:26;;;;;;;;;;;;;;;3.34;100.00;100762.69;5021466;28;20510;-77
2024/03/23 05:44:52;;;;;;;;;;;;;;;3.32;100.00;100765.13;5022894;28;20014;-76
2024/03/23 05:47:17;;;;;;;;;;;;;;;3.38;100.00;100765.56;5021542;28;20386;-76
2024/03/23 05:49:43;;;;;;;;;;;;;;;3.50;100.00;100762.09;5025430;28;20326;-76
2024/03/23 05:52:09;;;;;;;;;;;;;;;3.58;100.00;100758.44;4998448;28;19967;-76
2024/03/23 05:54:34;;;;;;;;;;;;;;;3.65;100.00;100764.84;5023073;28;19921;-76
2024/03/23 05:56:59;;;;;;;;;;;;;;;3.75;100.00;100763.81;5022756;28;19975;-76
2024/03/23 05:59:25;;;;;;;;;;;;;;;3.77;100.00;100760.56;5022645;28;20023;-76
2024/03/23 06:01:51;;;;;;;;;;;;;;;3.86;100.00;100770.53;5020455;28;19978;-76
2024/03/23 06:04:16;;;;;;;;;;;;;;;3.99;100.00;100762.94;5020922;28;19948;-76
2024/03/23 06:06:42;;;;;;;;;;;;;;;4.04;100.00;100760.69;5020491;28;19933;-76
2024/03/23 06:09:07;;;;;;;;;;;;;;;4.02;100.00;100755.47;5018040;28;19929;-76
2024/03/23 06:11:34;;;;;;;;;;;;;;;3.88;100.00;100758.78;5022663;28;19979;-76
2024/03/23 06:14:01;;;;;;;;;;;;;;;3.94;100.00;100755.72;5021562;28;19964;-76
2024/03/23 06:16:27;;;;;;;;;;;;;;;4.16;100.00;100752.97;5020871;28;20043;-75
2024/03/23 06:18:54;;;;;;;;;;;;;;;4.28;100.00;100755.47;5020619;28;19960;-76
2024/03/23 06:21:20;;;;;;;;;;;;;;;4.41;100.00;100762.28;5020231;28;19965;-76
2024/03/23 06:23:51;;;;;;;;;;;;;;;4.45;100.00;100761.69;5017788;28;19980;-76
2024/03/23 06:26:20;;;;;;;;;;;;;;;4.60;100.00;100765.25;5021947;28;19921;-76
2024/03/23 06:28:45;;;;;;;;;;;;;;;4.77;100.00;100755.25;5020859;28;19925;-76
2024/03/23 06:31:11;;;;;;;;;;;;;;;4.78;100.00;100752.78;5021776;28;20273;-76
2024/03/23 06:33:37;;;;;;;;;;;;;;;4.91;100.00;100754.47;5022127;28;19968;-76
2024/03/23 06:36:03;;;;;;;;;;;;;;;4.95;100.00;100756.44;5011772;28;19925;-76
2024/03/23 06:38:28;;;;;;;;;;;;;;;4.89;100.00;100761.16;4992036;28;19922;-75
2024/03/23 06:40:54;;;;;;;;;;;;;;;4.79;100.00;100756.25;5010956;28;19922;-76
2024/03/23 06:43:19;;;;;;;;;;;;;;;4.66;100.00;100755.44;5010790;28;20014;-76
2024/03/23 06:45:52;;;;;;;;;;;;;;;4.74;100.00;100750.81;5011643;28;19924;-77
2024/03/23 06:48:20;;;;;;;;;;;;;;;4.94;100.00;100754.66;5011244;28;19969;-76
2024/03/23 06:50:48;;;;;;;;;;;;;;;5.11;100.00;100748.06;5011382;28;19923;-76
2024/03/23 06:53:14;;;;;;;;;;;;;;;5.27;100.00;100755.03;5010460;28;20014;-76
2024/03/23 06:55:41;;;;;;;;;;;;;;;5.51;100.00;100747.13;5010940;28;19995;-76
2024/03/23 06:58:06;;;;;;;;;;;;;;;5.59;100.00;100751.00;5012689;28;19973;-76
2024/03/23 07:00:34;;;;;;;;;;;;;;;5.70;100.00;100744.00;5014732;28;19921;-76
2024/03/23 07:03:00;;;;;;;;;;;;;;;5.93;100.00;100744.50;5010549;28;19922;-76
2024/03/23 07:05:25;;;;;;;;;;;;;;;6.17;100.00;100744.22;5014607;28;19917;-76
2024/03/23 07:07:51;;;;;;;;;;;;;;;6.29;100.00;100738.16;5014637;28;20423;-76
2024/03/23 07:10:16;;;;;;;;;;;;;;;6.28;100.00;100744.06;5014547;28;19928;-77
2024/03/23 07:12:41;;;;;;;;;;;;;;;6.37;100.00;100740.25;5014499;28;20303;-76
2024/03/23 07:15:27;;;;;;;;;;;;;;;6.25;100.00;100737.88;5014253;28;19918;-76
2024/03/23 07:17:52;;;;;;;;;;;;;;;6.57;100.00;100736.31;4999983;28;19917;-77
2024/03/23 07:20:18;;;;;;;;;;;;;;;6.73;100.00;100736.38;5003242;28;19917;-76
2024/03/23 07:22:45;;;;;;;;;;;;;;;6.93;100.00;100732.34;5003436;28;19987;-76
2024/03/23 07:25:11;;;;;;;;;;;;;;;7.04;99.77;100725.25;5003153;28;20423;-76
2024/03/23 07:27:37;;;;;;;;;;;;;;;7.13;97.94;100733.44;4996963;28;19922;-76
2024/03/23 07:30:03;;;;;;;;;;;;;;;6.97;96.53;100730.84;5001246;28;19929;-76
2024/03/23 07:32:29;;;;;;;;;;;;;;;7.07;97.47;100727.97;5001136;28;19928;-76
2024/03/23 07:34:57;;;;;;;;;;;;;;;7.32;94.48;100723.31;5001168;28;19921;-76
2024/03/23 07:37:22;;;;;;;;;;;;;;;7.52;94.95;100712.41;5001973;28;20319;-77
2024/03/23 07:39:48;;;;;;;;;;;;;;;7.79;94.11;100706.97;5000855;28;19918;-77
2024/03/23 07:42:26;;;;;;;;;;;;;;;7.98;91.12;100711.34;5001728;28;20331;-77
2024/03/23 07:44:52;;;;;;;;;;;;;;;8.02;90.27;100704.69;5001024;28;19925;-77
2024/03/23 07:47:18;;;;;;;;;;;;;;;8.14;88.24;100702.75;4994506;28;19914;-77
2024/03/23 07:49:45;;;;;;;;;;;;;;;8.35;86.45;100702.03;5003009;28;19928;-77
2024/03/23 07:52:10;;;;;;;;;;;;;;;8.45;85.93;100703.38;4992096;28;19917;-78
2024/03/23 07:54:35;;;;;;;;;;;;;;;8.43;86.75;100703.31;4991226;28;19930;-77
2024/03/23 07:57:01;;;;;;;;;;;;;;;8.61;86.57;100700.81;5013709;28;19921;-77
2024/03/23 07:59:31;;;;;;;;;;;;;;;8.82;84.80;100700.94;5013527;28;19929;-78
2024/03/23 08:02:14;;;;;;;;;;;;;;;8.69;85.88;100702.03;5016195;28;19925;-77
2024/03/23 08:04:39;;;;;;;;;;;;;;;8.46;86.09;100705.16;5020157;28;19925;-77
2024/03/23 08:07:04;;;;;;;;;;;;;;;8.51;87.27;100696.91;5021124;28;19922;-77
2024/03/23 08:09:50;;;;;;;;;;;;;;;8.39;86.71;100693.69;4990494;28;19926;-77
2024/03/23 08:12:16;;;;;;;;;;;;;;;8.66;85.07;100701.00;4991065;28;19975;-77
2024/03/23 08:15:01;;;;;;;;;;;;;;;8.75;84.35;100698.88;4952275;29;20048;-77
2024/03/23 08:17:27;;;;;;;;;;;;;;;8.88;83.42;100692.63;4952337;29;20009;-77
2024/03/23 08:19:53;;;;;;;;;;;;;;;9.07;81.99;100697.84;4952409;29;20597;-77
2024/03/23 08:22:19;;;;;;;;;;;;;;;9.30;81.33;100690.28;4952102;29;19926;-78
2024/03/23 08:24:44;;;;;;;;;;;;;;;9.47;80.97;100685.91;4951896;29;19945;-78
2024/03/23 08:27:30;;;;;;;;;;;;;;;9.65;80.34;100679.78;4949565;28;19926;-77
2024/03/23 08:29:56;;;;;;;;;;;;;;;9.74;81.78;100676.72;4920112;29;19927;-77
2024/03/23 08:32:21;;;;;;;;;;;;;;;9.64;82.84;100681.47;4948923;28;19978;-78
2024/03/23 08:34:48;;;;;;;;;;;;;;;9.82;84.23;100672.78;4932672;29;19923;-77
2024/03/23 08:37:13;;;;;;;;;;;;;;;10.03;77.92;100677.97;4932714;29;19933;-77
2024/03/23 08:39:39;;;;;;;;;;;;;;;10.15;76.64;100673.31;4933254;28;19941;-77
2024/03/23 08:42:04;;;;;;;;;;;;;;;10.39;76.26;100672.59;4971703;28;19972;-78
2024/03/23 08:44:29;;;;;;;;;;;;;;;10.38;72.48;100673.47;4971260;28;20021;-77
2024/03/23 08:46:58;;;;;;;;;;;;;;;10.51;75.11;100672.25;5004760;28;19928;-77
2024/03/23 08:49:24;;;;;;;;;;;;;;;10.60;73.28;100666.56;5009989;28;19948;-77
2024/03/23 08:51:49;;;;;;;;;;;;;;;10.65;72.82;100660.78;5010769;28;20411;-78
2024/03/23 08:54:16;;;;;;;;;;;;;;;10.60;75.28;100657.09;5009939;28;19925;-77
2024/03/23 08:56:41;;;;;;;;;;;;;;;10.78;74.23;100650.91;5003736;28;20404;-77
2024/03/23 08:59:09;;;;;;;;;;;;;;;10.98;74.45;100637.06;5011476;28;20012;-78
2024/03/23 09:01:35;;;;;;;;;;;;;;;11.09;74.71;100634.91;5012484;28;19928;-78
2024/03/23 09:04:00;;;;;;;;;;;;;;;11.13;74.52;100635.91;5012098;28;19929;-77
2024/03/23 09:06:25;;;;;;;;;;;;;;;11.22;71.02;100627.59;5012512;28;19932;-78
2024/03/23 09:08:51;;;;;;;;;;;;;;;11.43;69.36;100628.38;5012928;28;19921;-77
2024/03/23 09:11:16;;;;;;;;;;;;;;;11.48;73.04;100615.63;5012103;28;19925;-78
2024/03/23 09:13:42;;;;;;;;;;;;;;;11.59;74.73;100605.63;4993423;28;19925;-77
2024/03/23 09:16:09;;;;;;;;;;;;;;;11.56;69.53;100613.28;5010545;28;19980;-77
2024/03/23 09:18:35;;;;;;;;;;;;;;;11.51;71.43;100617.44;5012118;28;19917;-78
2024/03/23 09:21:00;;;;;;;;;;;;;;;11.51;68.20;100607.97;5011029;28;19925;-77
2024/03/23 09:23:26;;;;;;;;;;;;;;;11.68;69.56;100608.56;5012163;28;19928;-78
2024/03/23 09:25:51;;;;;;;;;;;;;;;11.92;68.33;100603.31;5012184;28;19925;-77
2024/03/23 09:28:17;;;;;;;;;;;;;;;12.09;67.52;100603.06;5012181;28;20407;-79
2024/03/23 09:30:42;;;;;;;;;;;;;;;12.32;66.14;100593.44;5011953;28;20292;-77
2024/03/23 09:33:11;;;;;;;;;;;;;;;12.34;66.31;100589.19;5011730;28;19925;-78
2024/03/23 09:35:57;;;;;;;;;;;;;;;12.46;66.42;100588.69;5015556;28;20287;-79
2024/03/23 09:38:25;;;;;;;;;;;;;;;12.59;66.32;100575.28;4971103;28;19961;-77
2024/03/23 09:40:53;;;;;;;;;;;;;;;12.61;66.02;100570.16;4973971;28;20442;-80
2024/03/23 09:43:19;;;;;;;;;;;;;;;12.67;64.63;100577.22;4981158;28;19949;-79
2024/03/23 09:45:46;;;;;;;;;;;;;;;12.54;63.67;100568.22;4964524;28;19926;-78
2024/03/23 09:48:11;;;;;;;;;;;;;;;12.59;63.31;100557.16;4985077;28;19922;-78
2024/03/23 09:50:38;;;;;;;;;;;;;;;12.74;61.83;100561.06;4979688;28;20458;-77
2024/03/23 09:53:03;;;;;;;;;;;;;;;12.93;60.82;100557.28;4951122;28;19929;-79
2024/03/23 09:55:29;;;;;;;;;;;;;;;13.12;59.25;100553.47;4981017;28;19925;-78
2024/03/23 09:57:54;;;;;;;;;;;;;;;13.24;57.12;100550.38;4980896;28;19926;-78
2024/03/23 10:00:20;;;;;;;;;;;;;;;13.46;57.02;100546.66;4978861;28;19925;-78
2024/03/23 10:02:46;;;;;;;;;;;;;;;13.68;56.61;100537.72;4948936;28;20415;-77
2024/03/23 10:05:25;;;;;;;;;;;;;;;13.67;56.14;100529.88;4967392;28;19922;-78
2024/03/23 10:07:50;;;;;;;;;;;;;;;13.86;56.68;100532.09;4976713;28;19997;-77
2024/03/23 10:10:16;;;;;;;;;;;;;;;13.65;55.74;100529.00;5009249;28;19921;-78
2024/03/23 10:12:50;;;;;;;;;;;;;;;13.67;56.22;100491.88;5022293;28;20371;-78
2024/03/23 10:15:19;;;;;;;;;;;;;;;14.13;55.63;100523.25;5022645;28;19932;-78
2024/03/23 10:17:46;;;;;;;;;;;;;;;14.21;55.19;100511.28;5001576;28;19929;-78
2024/03/23 10:20:12;;;;;;;;;;;;;;;14.46;54.24;100511.84;5004479;28;20016;-77
2024/03/23 10:22:41;;;;;;;;;;;;;;;14.65;52.44;100512.25;5002683;28;20381;-77
2024/03/23 10:25:10;;;;;;;;;;;;;;;14.86;56.05;100499.69;5025052;28;19925;-78
2024/03/23 10:27:35;;;;;;;;;;;;;;;15.06;53.50;100494.00;5020484;28;19921;-77
2024/03/23 10:30:08;;;;;;;;;;;;;;;15.01;53.27;100493.91;5020375;28;19975;-77
2024/03/23 10:32:33;;;;;;;;;;;;;;;14.96;53.84;100487.75;5017579;28;19917;-78
2024/03/23 10:35:23;;;;;;;;;;;;;;;14.93;52.87;100476.41;5013806;28;19921;-77
2024/03/23 10:37:49;;;;;;;;;;;;;;;14.91;56.64;100471.19;5007572;28;20295;-77
2024/03/23 10:40:15;;;;;;;;;;;;;;;15.16;50.24;100472.53;5010622;28;19921;-77
2024/03/23 10:42:40;;;;;;;;;;;;;;;15.30;48.33;100465.00;5010790;28;19921;-78
2024/03/23 10:45:07;;;;;;;;;;;;;;;15.36;51.43;100456.41;5010457;28;19932;-78
2024/03/23 10:47:34;;;;;;;;;;;;;;;15.39;52.13;100452.97;5011030;28;20012;-77
2024/03/23 10:49:59;;;;;;;;;;;;;;;15.47;50.43;100446.19;5010480;28;19927;-77
2024/03/23 10:52:25;;;;;;;;;;;;;;;15.56;50.63;100442.84;5010926;28;19926;-78
2024/03/23 10:54:55;;;;;;;;;;;;;;;15.77;50.02;100432.78;4992010;28;20008;-78
2024/03/23 10:57:42;;;;;;;;;;;;;;;15.62;50.77;100427.34;4992603;28;19926;-78
2024/03/23 11:00:08;;;;;;;;;;;;;;;15.62;46.57;100425.59;4988626;28;20028;-77
2024/03/23 11:02:34;;;;;;;;;;;;;;;15.91;45.90;100427.78;4988649;28;19922;-78
2024/03/23 11:04:59;;;;;;;;;;;;;;;16.13;42.52;100417.69;4972012;28;19918;-78
2024/03/23 11:07:24;;;;;;;;;;;;;;;16.34;42.03;100415.34;4988602;28;20426;-77
2024/03/23 11:09:53;;;;;;;;;;;;;;;16.49;41.45;100409.47;4988533;28;19914;-77
2024/03/23 11:12:24;;;;;;;;;;;;;;;16.69;42.24;100402.75;4972055;28;19926;-78
2024/03/23 11:14:55;;;;;;;;;;;;;;;16.78;42.24;100395.00;4988619;28;19930;-78
2024/03/23 11:17:21;;;;;;;;;;;;;;;16.86;41.70;100393.34;4990668;28;19926;-77
2024/03/23 11:20:09;;;;;;;;;;;;;;;17.06;42.28;100395.28;4967144;28;19922;-78
2024/03/23 11:22:37;;;;;;;;;;;;;;;17.09;38.27;100385.75;4968911;28;20016;-77
2024/03/23 11:25:12;;;;;;;;;;;;;;;17.22;37.35;100386.75;4968118;28;19985;-78
2024/03/23 11:27:37;;;;;;;;;;;;;;;17.12;35.46;100374.47;4970561;28;20021;-77
2024/03/23 11:30:12;;;;;;;;;;;;;;;17.01;32.76;100376.13;4995668;28;20012;-79
2024/03/23 11:32:37;;;;;;;;;;;;;;;16.82;32.68;100370.69;4997700;28;19917;-78
2024/03/23 11:35:33;;;;;;;;;;;;;;;16.64;30.66;100377.47;4978878;28;19925;-77
2024/03/23 11:38:11;;;;;;;;;;;;;;;16.57;32.56;100372.19;4960010;28;20472;-78
2024/03/23 11:40:38;;;;;;;;;;;;;;;16.62;33.94;100362.69;4974599;28;19918;-78
2024/03/23 11:43:11;;;;;;;;;;;;;;;16.29;31.43;100359.72;4977722;28;19917;-78
2024/03/23 11:45:40;;;;;;;;;;;;;;;16.06;27.32;100355.97;4980410;28;19922;-78
2024/03/23 11:48:06;;;;;;;;;;;;;;;16.26;29.81;100348.38;4978103;28;19998;-78
2024/03/23 11:50:32;;;;;;;;;;;;;;;16.45;33.69;100347.75;4983449;28;19922;-77
2024/03/23 11:53:07;;;;;;;;;;;;;;;16.72;29.26;100337.59;4981788;28;19919;-77
2024/03/23 11:55:41;;;;;;;;;;;;;;;17.01;30.94;100323.97;4981583;28;19926;-78
2024/03/23 11:58:07;;;;;;;;;;;;;;;17.33;31.88;100325.94;5002345;28;19930;-78
2024/03/23 12:00:34;;;;;;;;;;;;;;;17.46;31.23;100318.22;5024970;28;19921;-78
2024/03/23 12:03:00;;;;;;;;;;;;;;;17.72;30.78;100314.88;5020642;28;19956;-78
2024/03/23 12:05:26;;;;;;;;;;;;;;;17.76;28.97;100313.16;5020459;28;19983;-77
2024/03/23 12:07:51;;;;;;;;;;;;;;;17.89;30.09;100312.31;5020734;28;19956;-78
2024/03/23 12:10:19;;;;;;;;;;;;;;;17.91;30.54;100307.13;5019453;28;19932;-78
2024/03/23 12:12:44;;;;;;;;;;;;;;;18.01;30.97;100306.31;5019972;28;19922;-78
2024/03/23 12:15:10;;;;;;;;;;;;;;;17.93;31.10;100298.44;5008817;28;19975;-78
2024/03/23 12:17:36;;;;;;;;;;;;;;;18.05;31.86;100297.63;5013275;28;19925;-77
2024/03/23 12:20:02;;;;;;;;;;;;;;;17.99;30.82;100292.38;5013528;28;20539;-78
2024/03/23 12:22:29;;;;;;;;;;;;;;;17.91;31.22;100288.84;5012005;28;20378;-78
2024/03/23 12:24:54;;;;;;;;;;;;;;;18.12;31.12;100277.63;5013030;28;20387;-77
2024/03/23 12:27:20;;;;;;;;;;;;;;;17.94;29.39;100281.94;5013021;28;19925;-78
2024/03/23 12:29:46;;;;;;;;;;;;;;;17.73;30.00;100274.84;5013242;28;19929;-78
2024/03/23 12:32:12;;;;;;;;;;;;;;;17.81;28.67;100272.28;5012940;28;19994;-78
2024/03/23 12:34:38;;;;;;;;;;;;;;;17.99;28.26;100260.19;5012790;28;20443;-77
2024/03/23 12:37:03;;;;;;;;;;;;;;;17.94;30.37;100257.53;5004543;28;19926;-77
2024/03/23 12:39:29;;;;;;;;;;;;;;;18.05;31.90;100252.34;5013356;28;20394;-78